Portada
METAR-TAF:

METAR-TAF

Aeroports :

Vientiane, Laos

latitud: 17-57N, longitud: 102-34E, altitud: 171 m

Observació

L'informe es va fer fa 22 minuts, a les 04:00 UTC
Vent 6 kt del Nord-Est
Temperatura 31°C
Humitat 59%
Pressió 1015 hPa
Visibilitat: 8000 m
Escasses núvols a una alçada de 2000 ft
Núvols disperses a una alçada de 5000 ft

METAR: VLVT 150400Z 04006KT 8000 FEW020 SCT050 31/22 Q1015 NOSIG

Hora: 11:22 (04:22 UTC)

Pronòstic

L'informe es va fer fa 5 hores i 22 minuts, a les 23:00 UTC
Pronòstic vàlid del 15 a les 00 UTC al 15 a les 24 UTC
Vent 4 kt del Est/Nord-Est
Visibilitat: 8000 m
Núvols disperses a una alçada de 1600 ft
Cel ennuvolat a una alçada de 4000 ft
Núvols disperses a una alçada de 9300 ft

TAF: VLVT 142300Z 1500/1524 06004KT 8000 SCT016 BKN040 SCT093

Observacions i pronòstics meteorològics de més de 4000 aeroports (METAR i TAF).

Les estacions disponibles són els punts grocs i vermells al mapa.

Posi el ratolí al punt desitjat per veure el nom de l'estació.

Feu clic per veure les observacions i els pronòstics meteorològics.

Per canviar el mapa: feu clic els botons verds amb una creu de color negre per apropar; al botó verd amb un guió per allunyar la imatge; o en les fletxes verdes per a mapes adjacents.


METAR-TAF: